Terminal Aerodrome Forecast
Issued by NWS Buffalo, NY

Home | Current Version | Previous Version | Text Only | Print | Product List | Glossary On
Versions: 1 2 3 4 5 6 7 8 9 10 11 12 13 14 15 16 17 18 19 20 21 22 23 24 25
000
FTUS41 KBUF 222300
TAFART
TAF
KART 222338Z 2300/2324 21005KT P6SM SCT250
     FM230900 22010KT P6SM VCSH BKN060
     FM231200 23010G18KT P6SM -SHRA BKN040
     FM231800 32008KT P6SM BKN030=

USA.gov is the U.S. government's official web portal to all federal, state and local government web resources and services.